Terminal Aerodrome Forecast
Issued by NWS

Home | Current Version | Previous Version | Text Only | Print | Product List | Glossary Off
Versions: 1 2 3 4 5 6 7 8 9 10 11 12 13 14 15 16 17 18 19 20 21 22 23 24 25

000
FTUS43 KBIS 261842 AAA
TAFMOT
TAF AMD
KMOT 261842Z 2619/2718 30011G19KT P6SM VCTS SCT070CB
      TEMPO 2621/2624 5SM -TSRA BKN050CB
     FM270100 27007KT P6SM SCT090=

USA.gov is the U.S. government's official web portal to all federal, state and local government web resources and services.